Time;durP1;ratioP1;P1;durP2;ratioP2;P2;SDS_P1;SDS_P2;PMS_P1;PMS_P2;Temp;Humidity;BMP_temperature;BMP_pressure;BME280_temperature;BME280_humidity;BME280_pressure;Samples;Min_cycle;Max_cycle;Signal;HPM_P1;HPM_P2
2022/09/19 00:00:26;;;;;;;11.05;2.58;;;9.70;99.90;;;;;;5047627;28;20028;-67
2022/09/19 00:02:53;;;;;;;20.65;2.67;;;9.70;99.90;;;;;;5042094;28;20052;-67
2022/09/19 00:05:18;;;;;;;9.77;2.08;;;9.70;99.90;;;;;;5046082;28;20032;-64
2022/09/19 00:07:47;;;;;;;7.88;1.65;;;9.70;99.90;;;;;;5042138;28;20067;-66
2022/09/19 00:10:13;;;;;;;9.95;1.90;;;9.70;99.90;;;;;;5043439;28;20096;-66
2022/09/19 00:12:38;;;;;;;17.13;1.77;;;9.70;99.90;;;;;;5042790;28;20025;-66
2022/09/19 00:15:04;;;;;;;11.85;2.15;;;9.70;99.90;;;;;;5050521;28;20119;-65
2022/09/19 00:17:30;;;;;;;12.63;1.70;;;9.80;99.90;;;;;;5045670;28;20021;-66
2022/09/19 00:19:55;;;;;;;9.02;1.73;;;9.80;99.90;;;;;;5043633;28;20036;-66
2022/09/19 00:22:21;;;;;;;12.18;2.13;;;9.80;99.90;;;;;;5047411;28;20029;-66
2022/09/19 00:24:49;;;;;;;15.23;2.20;;;9.80;99.90;;;;;;5042984;28;20025;-65
2022/09/19 00:27:19;;;;;;;6.30;1.88;;;9.80;99.90;;;;;;5050018;28;20110;-67
2022/09/19 00:29:45;;;;;;;14.50;2.10;;;9.90;99.90;;;;;;5041208;28;20502;-66
2022/09/19 00:32:12;;;;;;;13.13;2.13;;;9.90;99.90;;;;;;5047026;28;20037;-67
2022/09/19 00:34:48;;;;;;;17.40;2.15;;;9.90;99.90;;;;;;5046752;28;20063;-65
2022/09/19 00:37:19;;;;;;;17.10;1.77;;;9.90;99.90;;;;;;5046760;28;20034;-65
2022/09/19 00:39:45;;;;;;;18.10;2.30;;;9.90;99.90;;;;;;5045678;28;20367;-65
2022/09/19 00:42:20;;;;;;;14.73;2.70;;;9.90;99.90;;;;;;5040465;28;20037;-67
2022/09/19 00:44:52;;;;;;;20.35;2.60;;;9.90;99.90;;;;;;5042578;28;20032;-66
2022/09/19 00:47:25;;;;;;;13.15;2.05;;;9.90;99.90;;;;;;5042666;28;20027;-64
2022/09/19 00:49:54;;;;;;;21.95;1.83;;;9.90;99.90;;;;;;5047618;28;20056;-67
2022/09/19 00:52:42;;;;;;;17.13;2.63;;;9.90;99.90;;;;;;5040144;28;20021;-66
2022/09/19 00:55:08;;;;;;;24.75;2.67;;;9.90;99.90;;;;;;5040484;28;20154;-67
2022/09/19 00:57:43;;;;;;;14.07;2.13;;;9.80;99.90;;;;;;5045242;28;20092;-66
2022/09/19 01:00:09;;;;;;;9.95;1.90;;;9.80;99.90;;;;;;5037509;28;20785;-66
2022/09/19 01:02:35;;;;;;;15.95;3.33;;;9.80;99.90;;;;;;5044005;28;20033;-67
2022/09/19 01:05:02;;;;;;;13.43;2.00;;;9.80;99.90;;;;;;5041755;28;20039;-65
2022/09/19 01:07:45;;;;;;;18.98;2.00;;;9.80;99.90;;;;;;5044325;28;20028;-66
2022/09/19 01:10:36;;;;;;;8.95;1.55;;;9.80;99.90;;;;;;5045176;28;20036;-67
2022/09/19 01:13:24;;;;;;;26.58;2.90;;;9.80;99.90;;;;;;5046129;28;20726;-66
2022/09/19 01:16:03;;;;;;;13.25;1.90;;;9.80;99.90;;;;;;5041253;28;20017;-66
2022/09/19 01:18:38;;;;;;;11.20;2.28;;;9.90;99.90;;;;;;5047859;28;20036;-67
2022/09/19 01:24:20;;;;;;;23.92;2.88;;;9.80;99.90;;;;;;5041126;28;20052;-66
2022/09/19 01:27:23;;;;;;;13.68;2.65;;;9.90;99.90;;;;;;5041854;28;20108;-64
2022/09/19 01:29:56;;;;;;;15.25;2.25;;;9.90;99.90;;;;;;5042410;28;20033;-64
2022/09/19 01:32:28;;;;;;;11.23;2.97;;;9.90;99.90;;;;;;5041052;28;20020;-65
2022/09/19 01:34:59;;;;;;;24.88;2.38;;;9.90;99.90;;;;;;5042821;28;20426;-66
2022/09/19 01:37:35;;;;;;;7.18;2.00;;;9.90;99.90;;;;;;5045799;28;20090;-65
2022/09/19 01:40:04;;;;;;;19.30;2.55;;;9.90;99.90;;;;;;5043420;28;20028;-66
2022/09/19 01:42:30;;;;;;;17.90;2.88;;;9.90;99.90;;;;;;5046138;28;20178;-66
2022/09/19 01:44:55;;;;;;;16.40;2.25;;;9.90;99.90;;;;;;5036860;28;20558;-68
2022/09/19 01:47:31;;;;;;;21.58;2.60;;;9.90;99.90;;;;;;5046916;28;20052;-67
2022/09/19 01:50:10;;;;;;;16.40;2.50;;;10.00;99.90;;;;;;5045211;28;20876;-66
2022/09/19 01:53:01;;;;;;;20.38;3.35;;;10.00;99.90;;;;;;5041202;28;20035;-66
2022/09/19 01:55:41;;;;;;;12.38;2.22;;;10.00;99.90;;;;;;5037229;28;20087;-66
2022/09/19 01:58:16;;;;;;;13.13;2.20;;;9.90;99.90;;;;;;5035897;28;20096;-63
2022/09/19 02:00:53;;;;;;;17.08;2.72;;;9.90;99.90;;;;;;5039808;28;20573;-67
2022/09/19 02:03:40;;;;;;;21.10;3.28;;;9.90;99.90;;;;;;5047456;28;20556;-67
2022/09/19 02:06:11;;;;;;;16.70;3.47;;;9.90;99.90;;;;;;5041039;28;20037;-67
2022/09/19 02:09:04;;;;;;;14.93;1.83;;;9.80;99.90;;;;;;5048303;28;20055;-66
2022/09/19 02:11:30;;;;;;;17.10;2.13;;;9.80;99.90;;;;;;5038612;28;20029;-66
2022/09/19 02:14:06;;;;;;;18.92;2.20;;;9.80;99.90;;;;;;5040769;28;20451;-67
2022/09/19 02:16:40;;;;;;;20.52;3.90;;;9.80;99.90;;;;;;5041505;28;20029;-67
2022/09/19 02:19:18;;;;;;;13.90;2.15;;;9.80;99.90;;;;;;5040223;28;20488;-66
2022/09/19 02:21:53;;;;;;;13.45;1.90;;;9.80;99.90;;;;;;5035882;28;20044;-66
2022/09/19 02:24:23;;;;;;;15.05;2.50;;;9.80;99.90;;;;;;5041388;28;20470;-66
2022/09/19 02:26:51;;;;;;;17.58;2.20;;;9.80;99.90;;;;;;5043953;28;20033;-66
2022/09/19 02:29:20;;;;;;;17.58;2.22;;;9.70;99.90;;;;;;5045201;28;20045;-66
2022/09/19 02:31:46;;;;;;;18.60;2.20;;;9.70;99.90;;;;;;5042523;28;20025;-66
2022/09/19 02:34:12;;;;;;;15.10;2.20;;;9.70;99.90;;;;;;5041871;28;20037;-64
2022/09/19 02:36:44;;;;;;;14.18;2.50;;;9.70;99.90;;;;;;5039237;28;20021;-65
2022/09/19 02:39:22;;;;;;;20.00;4.22;;;9.70;99.90;;;;;;5040312;28;20526;-66
2022/09/19 02:42:08;;;;;;;9.65;1.63;;;9.70;99.90;;;;;;5042614;28;20064;-66
2022/09/19 02:45:06;;;;;;;11.95;2.25;;;9.80;99.90;;;;;;5044663;28;20060;-65
2022/09/19 02:48:18;;;;;;;11.00;1.55;;;9.80;99.90;;;;;;5023483;28;20036;-65
2022/09/19 02:50:48;;;;;;;18.00;2.15;;;9.80;99.90;;;;;;5040672;28;20044;-65
2022/09/19 02:53:19;;;;;;;19.02;2.00;;;9.80;99.90;;;;;;5046341;28;20021;-65
2022/09/19 02:55:56;;;;;;;10.02;2.20;;;9.80;99.90;;;;;;5042951;28;20013;-66
2022/09/19 02:58:25;;;;;;;20.25;1.85;;;9.80;99.90;;;;;;5042312;28;20017;-66
2022/09/19 03:00:56;;;;;;;15.23;2.15;;;9.80;99.90;;;;;;5040075;28;20034;-66
2022/09/19 03:06:19;;;;;;;7.82;1.67;;;9.80;99.90;;;;;;5042336;28;20036;-66
2022/09/19 03:08:50;;;;;;;11.77;1.70;;;9.70;99.90;;;;;;5040495;28;20600;-66
2022/09/19 03:11:19;;;;;;;16.08;2.58;;;9.80;99.90;;;;;;5038631;28;20087;-66
2022/09/19 03:13:45;;;;;;;13.55;2.70;;;9.80;99.90;;;;;;5041281;28;20033;-66
2022/09/19 03:16:19;;;;;;;15.90;1.90;;;9.80;99.90;;;;;;5041830;28;20033;-66
2022/09/19 03:18:46;;;;;;;14.27;2.00;;;9.80;99.90;;;;;;5040723;28;20028;-66
2022/09/19 03:21:13;;;;;;;21.85;2.42;;;9.70;99.90;;;;;;5037828;28;20029;-65
2022/09/19 03:23:45;;;;;;;16.80;2.05;;;9.70;99.90;;;;;;5043512;28;20060;-66
2022/09/19 03:26:14;;;;;;;16.50;2.90;;;9.70;99.90;;;;;;5043485;28;20831;-65
2022/09/19 03:28:40;;;;;;;8.35;1.80;;;9.70;99.90;;;;;;5040672;28;20029;-66
2022/09/19 03:31:07;;;;;;;23.98;2.65;;;9.80;99.90;;;;;;5043733;28;20082;-66
2022/09/19 03:33:33;;;;;;;18.60;2.72;;;9.80;99.90;;;;;;5044380;28;20475;-65
2022/09/19 03:36:00;;;;;;;14.00;1.98;;;9.80;99.90;;;;;;5045922;28;20037;-66
2022/09/19 03:38:26;;;;;;;14.43;1.77;;;9.70;99.90;;;;;;5041213;28;20029;-66
2022/09/19 03:40:51;;;;;;;16.13;2.78;;;9.80;99.90;;;;;;5043711;28;20033;-66
2022/09/19 03:43:17;;;;;;;11.10;2.20;;;9.80;99.90;;;;;;5045590;28;20029;-66
2022/09/19 03:45:43;;;;;;;23.17;2.35;;;9.80;99.90;;;;;;5044182;28;20054;-66
2022/09/19 03:48:09;;;;;;;14.55;1.83;;;9.80;99.90;;;;;;5044557;28;20033;-65
2022/09/19 03:50:34;;;;;;;9.20;1.52;;;9.80;99.90;;;;;;5047606;28;20502;-66
2022/09/19 03:53:00;;;;;;;14.45;2.28;;;9.80;99.90;;;;;;5043575;28;20033;-65
2022/09/19 03:55:26;;;;;;;16.15;1.92;;;9.80;99.90;;;;;;5043193;28;20031;-66
2022/09/19 03:57:51;;;;;;;17.27;2.30;;;9.80;99.90;;;;;;5045109;28;20025;-66
2022/09/19 04:00:17;;;;;;;19.77;2.67;;;9.80;99.90;;;;;;5045103;28;20032;-66
2022/09/19 04:02:43;;;;;;;23.83;2.22;;;9.70;99.90;;;;;;5050022;28;20020;-65
2022/09/19 04:05:08;;;;;;;16.10;2.42;;;9.80;99.90;;;;;;5045295;28;20721;-66
2022/09/19 04:07:38;;;;;;;10.00;2.45;;;9.80;99.90;;;;;;5046897;28;20509;-66
2022/09/19 04:10:05;;;;;;;15.93;2.05;;;9.80;99.90;;;;;;5047385;28;20079;-66
2022/09/19 04:12:33;;;;;;;18.95;2.38;;;9.80;99.90;;;;;;5042883;28;20022;-66
2022/09/19 04:14:59;;;;;;;9.95;1.90;;;9.80;99.90;;;;;;5043763;28;20021;-66
2022/09/19 04:17:26;;;;;;;22.70;2.80;;;9.80;99.90;;;;;;5040934;28;20063;-65
2022/09/19 04:19:52;;;;;;;13.55;3.03;;;9.80;99.90;;;;;;5049110;28;20025;-67
2022/09/19 04:22:18;;;;;;;12.25;2.38;;;9.90;99.90;;;;;;5046136;28;20087;-65
2022/09/19 04:24:44;;;;;;;18.85;2.63;;;9.90;99.90;;;;;;5049659;28;20063;-66
2022/09/19 04:27:12;;;;;;;20.15;2.50;;;9.90;99.90;;;;;;5044590;28;20052;-66
2022/09/19 04:29:39;;;;;;;16.83;3.10;;;9.90;99.90;;;;;;5046703;28;20437;-65
2022/09/19 04:32:05;;;;;;;17.10;2.60;;;10.00;99.90;;;;;;5043388;28;20024;-66
2022/09/19 04:34:30;;;;;;;18.40;2.45;;;10.00;99.90;;;;;;5041254;28;20773;-65
2022/09/19 04:36:57;;;;;;;15.05;2.30;;;10.00;99.90;;;;;;5037286;28;20037;-65
2022/09/19 04:39:24;;;;;;;22.17;3.20;;;10.00;99.90;;;;;;5040311;28;20051;-65
2022/09/19 04:41:52;;;;;;;17.05;2.58;;;10.00;99.90;;;;;;5049970;28;20479;-66
2022/09/19 04:44:20;;;;;;;14.40;1.95;;;10.10;99.90;;;;;;5035872;28;20044;-65
2022/09/19 04:46:46;;;;;;;11.57;2.10;;;10.00;99.90;;;;;;5043665;28;20033;-66
2022/09/19 04:49:13;;;;;;;8.13;2.03;;;10.00;99.90;;;;;;5047927;28;20107;-65
2022/09/19 04:51:39;;;;;;;17.73;2.25;;;10.00;99.90;;;;;;5049148;28;20147;-66
2022/09/19 04:54:06;;;;;;;25.15;3.38;;;10.00;99.90;;;;;;5044838;28;20071;-67
2022/09/19 04:56:32;;;;;;;19.60;2.95;;;10.00;99.90;;;;;;5046951;28;20028;-65
2022/09/19 04:58:59;;;;;;;21.65;3.17;;;10.00;99.90;;;;;;5048390;28;20045;-65
2022/09/19 05:01:25;;;;;;;15.25;2.22;;;10.00;99.90;;;;;;5041767;28;20021;-65
2022/09/19 05:03:51;;;;;;;14.57;2.45;;;10.00;99.90;;;;;;5039072;28;20491;-65
2022/09/19 05:06:17;;;;;;;21.05;2.88;;;10.00;99.90;;;;;;5039609;28;20075;-67
2022/09/19 05:08:43;;;;;;;25.27;2.20;;;10.00;99.90;;;;;;5044730;28;20074;-66
2022/09/19 05:11:09;;;;;;;19.90;2.80;;;10.00;99.90;;;;;;5036928;28;20020;-66
2022/09/19 05:13:40;;;;;;;16.40;2.47;;;10.00;99.90;;;;;;5040425;28;20701;-66
2022/09/19 05:16:07;;;;;;;14.70;2.20;;;9.90;99.90;;;;;;5041407;28;20053;-66
2022/09/19 05:18:35;;;;;;;26.65;3.83;;;9.90;99.90;;;;;;5039947;28;20021;-66
2022/09/19 05:21:06;;;;;;;20.20;2.92;;;10.00;99.90;;;;;;5045223;28;20033;-65
2022/09/19 05:23:35;;;;;;;15.93;2.95;;;10.00;99.90;;;;;;5038673;28;20079;-65
2022/09/19 05:26:10;;;;;;;12.82;2.15;;;10.00;99.90;;;;;;5041561;28;20040;-65
2022/09/19 05:28:36;;;;;;;14.50;2.00;;;10.00;99.90;;;;;;5044365;28;20033;-66
2022/09/19 05:31:06;;;;;;;14.07;2.30;;;10.00;99.90;;;;;;5048942;28;20162;-65
2022/09/19 05:33:32;;;;;;;13.30;3.05;;;10.00;99.90;;;;;;5048434;28;20506;-66
2022/09/19 05:36:00;;;;;;;14.60;2.40;;;9.90;99.90;;;;;;5045931;28;20422;-66
2022/09/19 05:38:27;;;;;;;19.60;2.38;;;10.00;99.90;;;;;;5036864;28;20483;-67
2022/09/19 05:40:54;;;;;;;14.55;2.40;;;10.00;99.90;;;;;;5047370;28;20041;-66
2022/09/19 05:43:19;;;;;;;14.57;2.80;;;10.00;99.90;;;;;;5049166;28;20045;-64
2022/09/19 05:45:46;;;;;;;20.42;2.50;;;10.00;99.90;;;;;;5044826;28;20029;-67
2022/09/19 05:48:13;;;;;;;18.95;2.72;;;10.00;99.90;;;;;;5048886;28;20033;-65
2022/09/19 05:50:38;;;;;;;15.05;3.22;;;10.10;99.90;;;;;;5039985;28;20033;-66
2022/09/19 05:55:48;;;;;;;12.82;1.77;;;10.20;99.90;;;;;;5039465;28;20151;-65
2022/09/19 05:58:16;;;;;;;19.13;2.70;;;10.20;99.90;;;;;;5020010;28;20490;-65
2022/09/19 06:00:42;;;;;;;11.18;2.30;;;10.30;99.90;;;;;;5049339;28;20099;-65
2022/09/19 06:03:14;;;;;;;14.57;1.85;;;10.30;99.90;;;;;;5049229;28;20091;-65
2022/09/19 06:05:43;;;;;;;24.42;2.25;;;10.30;99.90;;;;;;5049446;28;20079;-66
2022/09/19 06:08:08;;;;;;;14.05;1.98;;;10.30;99.90;;;;;;5049777;28;20103;-67
2022/09/19 06:10:39;;;;;;;28.15;2.83;;;10.40;99.90;;;;;;5049909;28;20109;-66
2022/09/19 06:13:05;;;;;;;11.27;2.05;;;10.40;99.90;;;;;;5047788;28;20382;-66
2022/09/19 06:15:31;;;;;;;19.73;2.30;;;10.50;99.90;;;;;;5034390;28;20300;-66
2022/09/19 06:17:57;;;;;;;13.32;1.73;;;10.50;99.90;;;;;;5037162;28;20067;-65
2022/09/19 06:20:23;;;;;;;15.43;2.55;;;10.50;99.90;;;;;;5046183;28;20029;-66
2022/09/19 06:22:50;;;;;;;28.23;2.53;;;10.60;99.90;;;;;;5039583;28;20918;-66
2022/09/19 06:25:16;;;;;;;15.45;2.47;;;10.60;99.90;;;;;;5038781;28;20025;-66
2022/09/19 06:27:47;;;;;;;16.58;1.98;;;10.70;99.90;;;;;;5039865;28;20027;-65
2022/09/19 06:30:12;;;;;;;23.27;2.67;;;10.70;99.90;;;;;;5041462;28;20021;-66
2022/09/19 06:32:38;;;;;;;12.98;1.67;;;10.80;99.90;;;;;;5046722;28;20036;-65
2022/09/19 06:35:04;;;;;;;16.15;2.47;;;10.80;99.90;;;;;;5043796;28;20025;-66
2022/09/19 06:37:30;;;;;;;17.88;2.70;;;10.90;99.90;;;;;;5038986;28;20104;-66
2022/09/19 06:39:56;;;;;;;16.05;3.30;;;10.90;99.90;;;;;;5044531;28;20117;-66
2022/09/19 06:42:22;;;;;;;17.92;2.20;;;11.00;99.90;;;;;;5037026;28;20029;-65
2022/09/19 06:44:47;;;;;;;17.15;3.25;;;11.10;99.90;;;;;;5034245;28;20044;-66
2022/09/19 06:47:13;;;;;;;9.43;2.65;;;11.10;99.90;;;;;;5033729;28;20029;-66
2022/09/19 06:49:38;;;;;;;13.18;2.00;;;11.10;99.90;;;;;;5044548;28;20657;-65
2022/09/19 06:52:04;;;;;;;15.18;1.73;;;11.20;99.90;;;;;;5037706;28;20033;-67
2022/09/19 06:54:29;;;;;;;14.20;2.97;;;11.20;99.90;;;;;;5047244;28;20033;-66
2022/09/19 06:56:55;;;;;;;18.73;2.55;;;11.30;99.90;;;;;;5034401;28;20488;-65
2022/09/19 06:59:21;;;;;;;19.73;1.80;;;11.30;99.90;;;;;;5046819;28;20550;-66
2022/09/19 07:01:47;;;;;;;10.45;1.58;;;11.40;99.90;;;;;;5042556;28;20024;-66
2022/09/19 07:04:13;;;;;;;18.35;3.35;;;11.40;99.90;;;;;;5045496;28;20035;-67
2022/09/19 07:06:39;;;;;;;28.17;3.17;;;11.50;99.90;;;;;;5029945;28;20064;-66
2022/09/19 07:09:07;;;;;;;19.20;2.60;;;11.50;99.90;;;;;;5043806;28;20432;-65
2022/09/19 07:11:35;;;;;;;16.23;2.05;;;11.60;99.90;;;;;;5041266;28;20036;-66
2022/09/19 07:14:04;;;;;;;22.42;2.60;;;11.50;99.90;;;;;;5048411;28;20438;-66
2022/09/19 07:16:31;;;;;;;19.65;2.72;;;11.60;99.90;;;;;;5043212;28;20131;-66
2022/09/19 07:18:57;;;;;;;17.20;1.77;;;11.70;99.90;;;;;;5040559;28;20057;-59
2022/09/19 07:21:22;;;;;;;7.38;1.75;;;11.70;99.90;;;;;;5031931;28;20444;-56
2022/09/19 07:23:49;;;;;;;15.40;2.13;;;11.80;99.90;;;;;;5025038;28;20052;-56
2022/09/19 07:26:14;;;;;;;8.70;2.03;;;11.80;99.90;;;;;;5045710;28;20049;-57
2022/09/19 07:28:40;;;;;;;24.05;2.80;;;11.80;99.90;;;;;;5038612;28;20064;-54
2022/09/19 07:31:06;;;;;;;13.90;2.15;;;11.90;99.90;;;;;;5045326;28;20037;-57
2022/09/19 07:33:32;;;;;;;22.75;2.17;;;11.90;99.90;;;;;;5030785;28;20391;-55
2022/09/19 07:35:58;;;;;;;13.73;3.35;;;11.90;99.90;;;;;;5042942;28;20039;-53
2022/09/19 07:38:26;;;;;;;8.90;2.13;;;11.90;99.90;;;;;;5043631;28;20429;-58
2022/09/19 07:40:53;;;;;;;15.07;3.08;;;11.90;99.90;;;;;;5041589;28;20030;-56
2022/09/19 07:43:19;;;;;;;15.07;1.83;;;11.90;99.90;;;;;;5046524;28;20078;-58
2022/09/19 07:45:50;;;;;;;17.55;1.88;;;11.80;99.90;;;;;;5041930;28;20569;-58
2022/09/19 07:48:17;;;;;;;14.00;1.63;;;11.80;99.90;;;;;;5049892;28;20051;-56
2022/09/19 07:50:43;;;;;;;20.00;2.17;;;11.80;99.90;;;;;;5049727;28;20021;-56
2022/09/19 07:53:17;;;;;;;15.65;1.92;;;11.80;99.90;;;;;;5036671;28;20023;-58
2022/09/19 07:55:47;;;;;;;14.10;2.33;;;11.90;99.90;;;;;;5041053;28;20537;-52
2022/09/19 07:58:13;;;;;;;9.73;2.42;;;12.00;99.90;;;;;;5051003;28;20395;-52
2022/09/19 08:00:39;;;;;;;8.95;2.08;;;12.00;99.90;;;;;;5030998;28;20021;-51
2022/09/19 08:03:09;;;;;;;12.38;2.35;;;12.00;99.90;;;;;;5048413;28;20029;-58
2022/09/19 08:05:38;;;;;;;9.80;2.28;;;12.10;99.90;;;;;;5048470;28;20029;-56
2022/09/19 08:08:05;;;;;;;16.70;1.85;;;12.10;99.90;;;;;;5048147;28;20166;-55
2022/09/19 08:10:32;;;;;;;16.38;2.25;;;12.20;99.90;;;;;;5046328;28;20040;-57
2022/09/19 08:13:05;;;;;;;9.65;1.90;;;12.20;99.90;;;;;;5048455;28;20156;-58
2022/09/19 08:15:33;;;;;;;21.42;3.72;;;12.30;99.90;;;;;;5042207;28;20021;-60
2022/09/19 08:18:01;;;;;;;14.85;2.33;;;12.30;99.90;;;;;;5036528;28;20053;-52
2022/09/19 08:20:29;;;;;;;14.00;2.50;;;12.40;99.90;;;;;;5032346;28;20064;-54
2022/09/19 08:22:59;;;;;;;16.98;2.25;;;12.40;99.90;;;;;;5034582;28;20041;-56
2022/09/19 08:25:26;;;;;;;6.72;1.80;;;12.40;99.90;;;;;;5036792;28;20098;-58
2022/09/19 08:27:53;;;;;;;13.35;1.90;;;12.50;99.90;;;;;;5049006;28;20391;-55
2022/09/19 08:30:19;;;;;;;17.13;2.33;;;12.50;99.90;;;;;;5049746;28;20060;-54
2022/09/19 08:32:49;;;;;;;12.38;1.95;;;12.50;99.90;;;;;;5033171;28;20024;-56
2022/09/19 08:35:19;;;;;;;16.02;1.70;;;12.50;99.90;;;;;;5047302;28;20024;-55
2022/09/19 08:37:45;;;;;;;10.13;1.88;;;12.40;99.90;;;;;;5038846;28;20072;-58
2022/09/19 08:40:21;;;;;;;18.33;1.67;;;12.40;99.90;;;;;;5041317;28;20036;-55
2022/09/19 08:42:52;;;;;;;21.40;2.22;;;12.40;99.90;;;;;;5041541;28;20033;-56
2022/09/19 08:45:44;;;;;;;14.32;2.42;;;12.40;99.90;;;;;;5048101;28;20104;-57
2022/09/19 08:48:20;;;;;;;17.90;2.05;;;12.30;99.90;;;;;;5048497;28;20056;-55
2022/09/19 08:50:54;;;;;;;18.17;3.05;;;12.40;99.90;;;;;;5048644;28;20550;-56
2022/09/19 08:53:24;;;;;;;;;;;12.40;99.90;;;;;;5037735;28;20048;-56
2022/09/19 08:55:53;;;;;;;16.38;2.33;;;12.40;99.90;;;;;;5033115;28;19913;-56
2022/09/19 08:58:23;;;;;;;24.38;2.38;;;12.40;99.90;;;;;;5042496;28;20025;-57
2022/09/19 09:00:50;;;;;;;16.80;2.33;;;12.40;99.90;;;;;;5040086;28;20082;-55
2022/09/19 09:03:20;;;;;;;11.20;2.33;;;12.60;99.90;;;;;;5048188;28;20398;-56
2022/09/19 09:06:04;;;;;;;24.08;3.53;;;12.70;99.90;;;;;;5038105;28;20025;-57
2022/09/19 09:09:05;;;;;;;15.45;2.90;;;12.70;99.90;;;;;;5042466;28;20036;-55
2022/09/19 09:11:55;;;;;;;14.30;1.88;;;12.80;99.90;;;;;;5041899;28;20045;-57
2022/09/19 09:14:50;;;;;;;18.38;2.13;;;12.90;99.90;;;;;;5044349;28;20490;-56
2022/09/19 09:17:18;;;;;;;;;;;13.00;99.90;;;;;;5040698;28;20024;-55
2022/09/19 09:19:43;;;;;;;14.38;1.95;;;13.20;99.90;;;;;;5042159;28;19932;-56
2022/09/19 09:22:36;;;;;;;13.35;1.70;;;13.30;99.90;;;;;;5040974;28;20119;-52
2022/09/19 09:25:14;;;;;;;15.75;2.53;;;13.40;99.90;;;;;;5031888;28;20041;-54
2022/09/19 09:28:05;;;;;;;12.77;2.50;;;13.50;99.90;;;;;;5026741;28;20964;-55
2022/09/19 09:30:35;;;;;;;12.07;1.77;;;13.50;99.90;;;;;;5039899;28;20029;-57
2022/09/19 09:33:24;;;;;;;11.43;1.77;;;13.50;99.90;;;;;;5040943;28;20025;-57
2022/09/19 09:36:02;;;;;;;16.77;2.22;;;13.50;99.90;;;;;;5027064;28;20060;-56
2022/09/19 09:38:40;;;;;;;10.32;1.73;;;13.70;99.90;;;;;;5047840;28;20032;-54
2022/09/19 09:41:49;;;;;;;11.10;1.77;;;13.70;99.90;;;;;;5036941;28;20033;-58
2022/09/19 09:44:54;;;;;;;17.02;1.98;;;13.90;99.90;;;;;;5022885;28;20189;-55
2022/09/19 09:47:48;;;;;;;18.10;2.13;;;14.00;99.90;;;;;;5042733;28;20083;-55
2022/09/19 09:50:31;;;;;;;12.05;1.75;;;14.00;99.90;;;;;;5049363;28;20037;-56
2022/09/19 09:53:05;;;;;;;11.65;1.77;;;14.00;99.90;;;;;;5048908;28;20525;-53
2022/09/19 09:58:45;;;;;;;16.30;1.73;;;14.30;99.90;;;;;;5048613;28;20047;-52
2022/09/19 10:04:30;;;;;;;18.60;3.50;;;14.40;99.90;;;;;;5049703;28;20051;-53
2022/09/19 10:07:34;;;;;;;13.60;1.83;;;14.40;99.90;;;;;;5014641;28;20036;-54
2022/09/19 10:10:11;;;;;;;20.02;2.08;;;14.50;99.90;;;;;;5045533;28;20086;-54
2022/09/19 10:12:44;;;;;;;15.38;2.13;;;14.50;99.90;;;;;;5035715;28;20426;-56
2022/09/19 10:15:16;;;;;;;11.93;1.83;;;14.50;99.90;;;;;;5038149;28;20152;-60
2022/09/19 10:17:47;;;;;;;15.82;2.53;;;14.60;99.90;;;;;;5043267;28;20091;-55
2022/09/19 10:20:29;;;;;;;14.55;2.70;;;14.70;99.90;;;;;;5034561;28;20053;-55
2022/09/19 10:22:55;;;;;;;9.65;1.52;;;14.80;99.90;;;;;;5039392;28;20037;-55
2022/09/19 10:25:21;;;;;;;19.08;2.13;;;14.70;99.90;;;;;;5028669;28;20043;-57
2022/09/19 10:27:49;;;;;;;16.85;2.00;;;14.70;99.90;;;;;;5047362;28;20060;-53
2022/09/19 10:30:18;;;;;;;11.48;1.70;;;14.80;99.90;;;;;;5044554;28;20039;-57
2022/09/19 10:32:45;;;;;;;11.45;2.00;;;15.00;99.90;;;;;;5045753;28;20021;-58
2022/09/19 10:35:33;;;;;;;12.68;1.40;;;15.00;99.90;;;;;;5043994;28;20024;-55
2022/09/19 10:38:13;;;;;;;11.00;2.00;;;15.20;99.90;;;;;;5041068;28;20083;-56
2022/09/19 10:41:00;;;;;;;12.10;1.95;;;15.20;99.90;;;;;;5036317;28;20039;-57
2022/09/19 10:43:31;;;;;;;20.02;1.80;;;15.30;99.90;;;;;;5038559;28;20039;-57
2022/09/19 10:46:06;;;;;;;11.20;1.40;;;15.30;99.90;;;;;;5036956;28;20344;-54
2022/09/19 10:48:34;;;;;;;20.65;1.95;;;15.50;99.90;;;;;;5041391;28;20032;-54
2022/09/19 10:51:09;;;;;;;9.57;1.80;;;15.70;99.90;;;;;;5019713;28;20025;-58
2022/09/19 10:53:38;;;;;;;12.48;1.88;;;16.00;99.90;;;;;;5044573;28;20025;-56
2022/09/19 10:56:22;;;;;;;12.23;1.30;;;16.20;99.90;;;;;;5046576;28;20025;-53
2022/09/19 10:58:52;;;;;;;9.05;2.00;;;16.10;99.90;;;;;;5035374;28;20088;-57
2022/09/19 11:01:25;;;;;;;14.23;1.73;;;16.00;99.90;;;;;;5044687;28;20036;-54
2022/09/19 11:04:02;;;;;;;12.53;1.50;;;15.90;99.90;;;;;;5043999;28;20037;-56
2022/09/19 11:06:29;;;;;;;8.13;1.20;;;16.00;99.90;;;;;;5045340;28;20522;-55
2022/09/19 11:08:56;;;;;;;15.90;1.30;;;15.90;99.90;;;;;;5045540;28;20044;-55
2022/09/19 11:11:23;;;;;;;7.72;1.20;;;15.90;99.90;;;;;;5048593;28;20029;-55
2022/09/19 11:14:19;;;;;;;9.75;1.85;;;15.90;99.90;;;;;;5043569;28;20013;-52
2022/09/19 11:17:30;;;;;;;13.38;1.25;;;16.20;99.90;;;;;;5041276;28;20399;-56
2022/09/19 11:20:30;;;;;;;8.70;1.00;;;16.30;99.90;;;;;;4986013;28;20033;-57
2022/09/19 11:23:15;;;;;;;6.78;0.70;;;16.50;99.90;;;;;;5034670;28;20025;-56
2022/09/19 11:25:44;;;;;;;6.07;0.93;;;16.60;99.90;;;;;;5043747;28;20048;-55
2022/09/19 11:28:10;;;;;;;13.75;1.42;;;16.70;99.90;;;;;;5044174;28;20033;-55
2022/09/19 11:30:46;;;;;;;7.88;1.63;;;16.90;99.90;;;;;;5044338;28;20487;-57
2022/09/19 11:33:17;;;;;;;12.23;1.15;;;16.80;99.90;;;;;;5032026;28;20570;-56
2022/09/19 11:35:56;;;;;;;9.07;1.08;;;16.60;99.90;;;;;;5047404;28;20433;-57
2022/09/19 11:38:27;;;;;;;10.18;1.15;;;16.90;99.90;;;;;;5040684;28;20033;-57
2022/09/19 11:41:26;;;;;;;8.07;1.35;;;17.30;99.90;;;;;;5040752;28;20084;-57
2022/09/19 11:44:26;;;;;;;7.25;1.10;;;16.90;99.90;;;;;;5045492;28;20025;-57
2022/09/19 11:47:27;;;;;;;13.52;1.80;;;16.70;99.90;;;;;;5043248;28;20090;-55
2022/09/19 11:50:32;;;;;;;4.95;0.88;;;16.80;99.90;;;;;;5046852;28;20104;-56
2022/09/19 11:53:13;;;;;;;11.30;1.63;;;17.20;99.90;;;;;;5047200;28;20036;-56
2022/09/19 11:55:51;;;;;;;11.52;1.10;;;17.60;99.90;;;;;;5048338;28;20096;-57
2022/09/19 11:58:30;;;;;;;8.88;1.02;;;17.50;99.90;;;;;;5040237;28;20028;-57
2022/09/19 12:01:03;;;;;;;9.75;1.00;;;17.90;99.90;;;;;;5045615;28;20395;-55
2022/09/19 12:03:52;;;;;;;6.32;1.33;;;18.00;99.90;;;;;;5036217;28;20040;-57
2022/09/19 12:06:50;;;;;;;9.65;1.20;;;17.90;99.90;;;;;;5050584;28;20529;-56
2022/09/19 12:09:44;;;;;;;15.65;3.15;;;18.00;99.90;;;;;;5011792;28;20546;-56
2022/09/19 12:12:20;;;;;;;12.02;1.73;;;18.30;99.90;;;;;;5033921;28;20018;-54
2022/09/19 12:15:16;;;;;;;8.18;1.38;;;18.70;99.90;;;;;;5037336;28;20026;-57
2022/09/19 12:17:50;;;;;;;9.50;1.10;;;19.10;99.90;;;;;;5032114;28;20108;-56
2022/09/19 12:20:53;;;;;;;4.78;0.77;;;18.60;99.90;;;;;;5033971;28;20029;-54
2022/09/19 12:26:53;;;;;;;7.57;0.98;;;18.10;99.90;;;;;;5032554;28;20426;-55
2022/09/19 12:29:21;;;;;;;4.93;1.10;;;17.90;99.90;;;;;;5034129;28;20403;-56
2022/09/19 12:31:53;;;;;;;10.85;1.58;;;18.20;99.90;;;;;;5014191;28;20395;-57
2022/09/19 12:34:47;;;;;;;7.07;1.00;;;18.50;99.90;;;;;;5048065;28;20033;-55
2022/09/19 12:37:44;;;;;;;5.18;1.08;;;18.60;99.90;;;;;;5052123;28;20021;-54
2022/09/19 12:40:19;;;;;;;7.72;1.10;;;18.30;99.90;;;;;;5037608;28;20553;-54
2022/09/19 12:43:10;;;;;;;13.15;1.52;;;18.20;99.90;;;;;;5041514;28;20108;-55
2022/09/19 12:45:59;;;;;;;6.85;1.10;;;17.90;99.90;;;;;;5040566;28;20567;-56
2022/09/19 12:48:51;;;;;;;12.50;1.40;;;17.60;99.90;;;;;;5039848;28;20039;-58
2022/09/19 12:51:24;;;;;;;3.72;0.70;;;18.30;99.90;;;;;;5044504;28;20529;-52
2022/09/19 12:54:13;;;;;;;1.35;0.40;;;17.80;99.90;;;;;;5045122;28;20036;-57
2022/09/19 12:56:50;;;;;;;3.00;0.60;;;16.60;99.90;;;;;;5041891;28;20053;-56
2022/09/19 12:59:22;;;;;;;2.25;0.45;;;15.50;99.90;;;;;;5042864;28;20025;-56
2022/09/19 13:01:55;;;;;;;3.42;0.40;;;14.90;99.90;;;;;;5035581;28;20021;-57
2022/09/19 13:04:30;;;;;;;2.00;0.43;;;14.60;99.90;;;;;;5024480;28;20024;-52
2022/09/19 13:07:09;;;;;;;5.22;0.77;;;14.40;99.90;;;;;;5044754;28;20033;-56
2022/09/19 13:09:52;;;;;;;1.67;0.80;;;14.20;99.90;;;;;;5045459;28;20064;-56
2022/09/19 13:12:32;;;;;;;5.60;0.93;;;14.00;99.90;;;;;;5039117;28;20031;-52
2022/09/19 13:15:02;;;;;;;3.40;0.70;;;13.70;99.90;;;;;;5025705;28;20021;-55
2022/09/19 13:25:45;;;;;;;3.10;0.50;;;13.10;99.90;;;;;;5039098;28;20408;-52
2022/09/19 13:28:19;;;;;;;3.03;0.60;;;13.00;99.90;;;;;;5042249;28;20411;-56
2022/09/19 13:31:00;;;;;;;1.40;0.63;;;13.10;99.90;;;;;;5044355;28;20475;-57
2022/09/19 13:33:48;;;;;;;2.10;0.95;;;13.20;99.90;;;;;;5044034;28;20025;-54
2022/09/19 13:36:33;;;;;;;3.03;0.57;;;13.20;99.90;;;;;;5041619;28;20026;-56
2022/09/19 13:38:59;;;;;;;2.35;0.50;;;13.20;99.90;;;;;;5041193;28;20074;-55